DTTX/SFA METAR and TAF weather

Enter ICAO airport designator
Station Type Date Time Source
DTTX METAR 2019/10/21 23:00 UTC NOAA

DTTX 212300Z 08009KT 9999 FEW030 24/20 Q1018


Station Type Date Time Source
DTTX Decoded METAR 2019/10/21 23:00 UTC NOAA

Sfax El-Maou, Tunisia (DTTX) 34-43N 010-41E 23M
Oct 21, 2019 - 07:00 PM EDT / 2019.10.21 2300 UTC
Wind: from the E (080 degrees) at 10 MPH (9 KT):0
Visibility: greater than 7 mile(s):0
Sky conditions: mostly clear
Temperature: 75 F (24 C)
Dew Point: 68 F (20 C)
Relative Humidity: 78%
Pressure (altimeter): 30.06 in. Hg (1018 hPa)
ob: DTTX 212300Z 08009KT 9999 FEW030 24/20 Q1018
cycle: 23

Station Type Date Time Source
DTTX TAF 2019/10/21 18:03 UTC NOAA

TAF DTTX 211700Z 2118/2218 10012KT CAVOK
TEMPO 2118/2124 11015G25KT
BECMG 2201/2203 09017KT 9999 FEW026

Example: see airport list